Time;durP1;ratioP1;P1;durP2;ratioP2;P2;SDS_P1;SDS_P2;PMS_P1;PMS_P2;Temp;Humidity;BMP_temperature;BMP_pressure;BME280_temperature;BME280_humidity;BME280_pressure;Samples;Min_cycle;Max_cycle;Signal;HPM_P1;HPM_P2
2022/12/15 00:42:35;;;;;;;79.40;36.10;;;;;;;-3.51;97.36;97302.73;213619;1312;22510;-75
2022/12/15 00:47:37;;;;;;;77.80;31.90;;;;;;;-3.48;97.54;97309.20;213795;1313;26646;-74
2022/12/15 01:24:45;;;;;;;54.70;23.30;;;;;;;-3.44;98.48;97332.73;213763;1306;24377;-75
2022/12/15 01:29:47;;;;;;;57.60;25.60;;;;;;;-3.45;98.28;97335.89;213801;1312;22482;-74
2022/12/15 01:34:49;;;;;;;54.10;24.10;;;;;;;-3.44;98.57;97342.46;213754;1303;25464;-75
2022/12/15 01:45:23;;;;;;;60.40;26.40;;;;;;;-3.39;98.62;97353.77;213885;1312;26568;-74
2022/12/15 01:50:27;;;;;;;52.00;24.30;;;;;;;-3.35;98.88;97362.13;213827;1312;22780;-73
2022/12/15 01:55:31;;;;;;;55.60;24.00;;;;;;;-3.30;98.98;97375.05;213585;1310;22732;-75
2022/12/15 02:00:33;;;;;;;46.80;21.20;;;;;;;-3.26;99.23;97376.84;213822;1312;24132;-74
2022/12/15 02:05:35;;;;;;;72.70;31.00;;;;;;;-3.22;99.38;97375.31;213650;1312;25408;-74
2022/12/15 02:11:12;;;;;;;58.90;25.20;;;;;;;-3.13;99.48;97375.56;213605;1310;22622;-75
2022/12/15 02:16:27;;;;;;;53.00;22.90;;;;;;;-3.08;99.27;97380.42;213828;1312;23925;-74
2022/12/15 02:21:41;;;;;;;65.50;27.00;;;;;;;-3.03;99.30;97376.80;213624;1312;23838;-75
2022/12/15 02:26:51;;;;;;;58.40;25.30;;;;;;;-2.97;99.48;97386.71;213721;1312;24323;-75
2022/12/15 02:32:06;;;;;;;62.30;29.20;;;;;;;-2.92;99.42;97394.34;213796;1304;25551;-75
2022/12/15 02:37:21;;;;;;;58.10;22.40;;;;;;;-2.86;99.57;97399.02;213680;1312;22486;-74
2022/12/15 02:42:27;;;;;;;54.80;22.70;;;;;;;-2.84;99.33;97403.61;213752;1312;22579;-74
2022/12/15 02:47:53;;;;;;;54.90;22.90;;;;;;;-2.83;99.49;97414.20;213863;1312;22554;-75
2022/12/15 02:53:23;;;;;;;73.70;29.30;;;;;;;-2.80;99.38;97422.48;213868;1312;24173;-74
2022/12/15 02:58:44;;;;;;;72.90;29.20;;;;;;;-2.73;99.53;97420.40;213812;1312;25886;-74
2022/12/15 03:03:48;;;;;;;84.80;33.60;;;;;;;-2.71;99.36;97421.19;213965;1312;22557;-74
2022/12/15 03:08:50;;;;;;;77.70;32.20;;;;;;;-2.75;98.97;97430.40;213673;1312;22548;-74
2022/12/15 03:13:53;;;;;;;69.10;28.90;;;;;;;-2.81;98.90;97445.86;213654;1312;23938;-75
2022/12/15 03:18:54;;;;;;;67.60;29.10;;;;;;;-2.88;98.94;97446.52;213646;1312;24273;-75
2022/12/15 03:23:56;;;;;;;71.10;29.00;;;;;;;-2.92;98.84;97451.31;213623;1312;22836;-75
2022/12/15 03:28:59;;;;;;;78.10;32.60;;;;;;;-2.93;98.95;97462.10;213702;1312;22632;-75
2022/12/15 03:34:01;;;;;;;71.20;32.10;;;;;;;-2.89;99.08;97458.28;213689;1312;22525;-75
2022/12/15 03:39:03;;;;;;;63.00;28.60;;;;;;;-2.86;99.31;97463.53;213646;1312;26664;-73
2022/12/15 03:44:05;;;;;;;76.60;30.50;;;;;;;-2.87;99.09;97470.28;213559;1312;24260;-75
2022/12/15 03:49:07;;;;;;;88.70;35.70;;;;;;;-2.84;99.06;97482.50;213755;1305;22488;-74
2022/12/15 03:54:11;;;;;;;75.40;29.70;;;;;;;-2.78;99.50;97491.15;213771;1312;24356;-75
2022/12/15 03:59:13;;;;;;;74.00;28.50;;;;;;;-2.78;98.88;97497.40;213838;1312;25512;-74
2022/12/15 04:04:15;;;;;;;66.80;29.70;;;;;;;-2.85;98.58;97498.56;213783;1307;24330;-74
2022/12/15 04:09:18;;;;;;;70.50;28.80;;;;;;;-2.88;98.88;97502.76;213766;1311;22659;-75
2022/12/15 04:14:25;;;;;;;69.00;29.40;;;;;;;-2.83;98.85;97509.73;213738;1312;22602;-75
2022/12/15 05:34:30;;;;;;;112.00;36.90;;;;;;;-2.77;98.06;97621.72;213576;1312;22568;-74
2022/12/15 05:39:31;;;;;;;114.40;40.00;;;;;;;-2.75;97.88;97624.06;213697;1312;24773;-74
2022/12/15 05:44:33;;;;;;;115.30;40.20;;;;;;;-2.76;97.97;97639.67;213823;1312;26891;-75
2022/12/15 05:49:35;;;;;;;121.60;38.10;;;;;;;-2.76;97.94;97649.36;213756;1312;22497;-75
2022/12/15 05:54:37;;;;;;;117.40;43.40;;;;;;;-2.78;97.72;97658.38;213703;1312;25533;-75
2022/12/15 05:59:39;;;;;;;112.70;40.60;;;;;;;-2.78;97.62;97665.73;213832;1312;22504;-72
2022/12/15 06:04:40;;;;;;;128.60;43.10;;;;;;;-2.79;97.54;97674.10;213799;1308;22755;-74
2022/12/15 06:09:42;;;;;;;109.50;39.10;;;;;;;-2.83;97.48;97691.21;213749;1312;25220;-72
2022/12/15 06:14:44;;;;;;;118.20;41.20;;;;;;;-2.82;97.63;97696.01;213826;1312;23855;-74
2022/12/15 06:19:50;;;;;;;110.90;39.30;;;;;;;-2.79;97.63;97718.92;213743;1306;24928;-74
2022/12/15 06:24:52;;;;;;;98.50;32.40;;;;;;;-2.83;97.20;97713.73;213695;1312;22495;-74
2022/12/15 06:29:54;;;;;;;125.90;43.00;;;;;;;-2.86;97.01;97716.25;213661;1312;22570;-73
2022/12/15 06:34:56;;;;;;;125.90;41.80;;;;;;;-2.88;97.07;97718.92;213738;1312;23518;-74
2022/12/15 06:39:58;;;;;;;107.20;40.50;;;;;;;-2.84;97.37;97724.44;213636;1312;25490;-75
2022/12/15 06:44:59;;;;;;;136.40;45.10;;;;;;;-2.83;97.15;97732.56;213611;1310;22501;-74
2022/12/15 06:50:01;;;;;;;122.30;39.90;;;;;;;-2.83;97.13;97731.83;214041;1287;22555;-74
2022/12/15 06:55:03;;;;;;;133.10;40.60;;;;;;;-2.82;96.83;97751.05;214017;1289;26682;-74
2022/12/15 07:00:06;;;;;;;143.90;46.10;;;;;;;-2.78;97.09;97778.25;214164;1297;22496;-73
2022/12/15 07:05:08;;;;;;;143.10;48.60;;;;;;;-2.71;96.87;97785.31;214570;1281;22480;-74
2022/12/15 07:10:10;;;;;;;136.00;45.30;;;;;;;-2.63;96.90;97804.71;214921;1281;23605;-74
2022/12/15 07:15:12;;;;;;;128.10;47.20;;;;;;;-2.62;96.62;97805.94;218140;1281;139588;-75
2022/12/15 07:20:14;;;;;;;113.90;40.20;;;;;;;-2.59;96.53;97807.00;220019;1280;139083;-73
2022/12/15 07:25:16;;;;;;;125.60;44.30;;;;;;;-2.56;96.57;97825.33;214873;1281;139040;-74
2022/12/15 07:30:18;;;;;;;143.00;48.80;;;;;;;-2.42;97.01;97825.60;214613;1284;140063;-74
2022/12/15 07:35:20;;;;;;;118.80;40.80;;;;;;;-2.26;96.90;97832.77;214710;1281;23197;-74
2022/12/15 07:40:22;;;;;;;132.70;43.50;;;;;;;-2.15;96.52;97838.63;214674;1284;138762;-74
2022/12/15 07:45:24;;;;;;;140.60;47.40;;;;;;;-2.08;96.25;97847.08;214441;1284;138829;-74
2022/12/15 07:50:27;;;;;;;141.80;49.30;;;;;;;-2.00;96.22;97851.49;214457;1283;139245;-73
2022/12/15 07:55:29;;;;;;;134.00;46.30;;;;;;;-1.88;96.05;97862.31;214625;1283;139007;-75
2022/12/15 08:00:52;;;;;;;146.30;47.40;;;;;;;-1.79;95.42;97859.56;214653;1288;139824;-75
2022/12/15 08:05:54;;;;;;;137.30;48.40;;;;;;;-1.73;95.31;97872.77;219879;1293;138986;-75
2022/12/15 08:11:10;;;;;;;129.10;48.20;;;;;;;-1.63;95.54;97882.32;215326;1284;22755;-75
2022/12/15 08:16:11;;;;;;;151.60;51.50;;;;;;;-1.51;95.56;97891.93;214966;1286;139192;-75
2022/12/15 08:21:13;;;;;;;150.40;50.60;;;;;;;-1.46;94.59;97902.11;214431;1288;139052;-76
2022/12/15 08:26:17;;;;;;;164.60;53.60;;;;;;;-1.40;94.63;97908.81;214545;1283;139126;-76
2022/12/15 08:31:21;;;;;;;140.40;51.60;;;;;;;-1.33;94.45;97915.60;214741;1283;139061;-75
2022/12/15 08:36:23;;;;;;;157.50;51.80;;;;;;;-1.32;94.41;97916.17;214397;1286;139181;-76
2022/12/15 08:41:30;;;;;;;157.60;55.60;;;;;;;-1.20;94.50;97922.28;214734;1284;23809;-75
2022/12/15 08:46:33;;;;;;;155.60;50.00;;;;;;;-1.08;94.30;97930.34;214547;1288;138628;-75
2022/12/15 08:51:35;;;;;;;134.40;46.20;;;;;;;-0.97;94.29;97936.08;214769;1280;139355;-77
2022/12/15 08:56:37;;;;;;;135.70;45.20;;;;;;;-0.84;93.95;97931.59;214664;1288;139827;-76
2022/12/15 09:01:40;;;;;;;159.10;51.10;;;;;;;-0.68;93.90;97937.00;214807;1290;139608;-76
2022/12/15 09:06:43;;;;;;;160.00;51.00;;;;;;;-0.55;93.89;97926.08;214980;1288;139148;-77
2022/12/15 09:11:49;;;;;;;147.80;47.40;;;;;;;-0.40;93.11;97932.90;214588;1304;139029;-77
2022/12/15 09:16:51;;;;;;;141.30;48.60;;;;;;;-0.39;92.31;97945.50;215258;1291;22492;-77
2022/12/15 09:21:52;;;;;;;146.50;50.20;;;;;;;-0.25;92.55;97945.00;214588;1298;138841;-76
2022/12/15 09:26:55;;;;;;;156.80;52.00;;;;;;;-0.17;92.12;97958.50;214439;1290;139179;-78
2022/12/15 09:31:57;;;;;;;172.30;57.80;;;;;;;-0.04;92.45;97970.61;214459;1282;139602;-77
2022/12/15 09:36:59;;;;;;;178.40;55.50;;;;;;;0.10;92.48;97976.83;214253;1292;139067;-78
2022/12/15 09:42:01;;;;;;;151.10;52.30;;;;;;;0.18;91.74;97966.35;214412;1287;139013;-78
2022/12/15 09:47:16;;;;;;;157.50;54.00;;;;;;;0.32;92.00;97958.77;214595;1280;22523;-78
2022/12/15 09:52:23;;;;;;;132.90;48.60;;;;;;;0.55;91.78;97955.88;214380;1291;138725;-78
2022/12/15 09:57:52;;;;;;;114.70;39.10;;;;;;;0.64;90.79;97974.51;214526;1288;138917;-78
2022/12/15 10:03:03;;;;;;;117.10;40.60;;;;;;;0.51;89.57;97986.04;214500;1288;139547;-79
2022/12/15 10:08:05;;;;;;;129.50;44.80;;;;;;;0.60;90.23;97990.59;214340;1314;138910;-77
2022/12/15 10:13:23;;;;;;;144.30;46.10;;;;;;;0.76;90.01;97985.89;214459;1287;138971;-77
2022/12/15 10:18:41;;;;;;;120.10;39.70;;;;;;;0.89;89.81;97984.69;214938;1312;139145;-79
2022/12/15 10:23:43;;;;;;;86.70;33.30;;;;;;;1.02;89.29;97976.51;214439;1288;139300;-78
2022/12/15 10:29:01;;;;;;;118.50;40.50;;;;;;;1.01;88.53;97969.85;214695;1297;22556;-78
2022/12/15 10:34:17;;;;;;;100.30;35.70;;;;;;;0.96;88.78;97956.40;214474;1284;138615;-78
2022/12/15 10:39:20;;;;;;;86.70;30.90;;;;;;;0.98;88.34;97956.16;214612;1297;139038;-78
2022/12/15 10:44:24;;;;;;;86.70;33.80;;;;;;;1.02;88.03;97960.90;214424;1284;169776;-79
2022/12/15 10:49:32;;;;;;;108.20;38.70;;;;;;;1.10;88.29;97961.15;214404;1300;138707;-78
2022/12/15 10:54:42;;;;;;;91.00;35.50;;;;;;;1.22;87.80;97962.98;214344;1294;138926;-78
2022/12/15 10:59:44;;;;;;;86.80;33.90;;;;;;;1.19;87.59;97965.41;213993;1287;138758;-78
2022/12/15 11:05:00;;;;;;;102.50;37.60;;;;;;;1.14;87.16;97971.80;214067;1288;25383;-78
2022/12/15 11:10:18;;;;;;;93.40;37.20;;;;;;;1.23;88.02;97981.92;213994;1287;139116;-78
2022/12/15 11:15:20;;;;;;;78.20;32.20;;;;;;;1.24;86.97;97996.15;214337;1298;138655;-79
2022/12/15 11:20:30;;;;;;;79.30;32.10;;;;;;;0.99;85.72;97990.67;214366;1288;138774;-79
2022/12/15 11:25:40;;;;;;;69.50;31.30;;;;;;;0.74;85.10;97998.27;214068;1291;138724;-79
2022/12/15 11:30:51;;;;;;;76.90;33.90;;;;;;;0.56;85.36;97996.27;213957;1312;139154;-79
2022/12/15 11:36:21;;;;;;;64.20;28.10;;;;;;;0.50;85.50;98012.90;213821;1307;138882;-78
2022/12/15 11:41:41;;;;;;;59.20;26.10;;;;;;;0.41;85.27;98010.34;214184;1288;24449;-76
2022/12/15 11:46:53;;;;;;;61.00;27.30;;;;;;;0.32;85.53;98006.50;214185;1312;22744;-76
2022/12/15 11:52:22;;;;;;;60.20;26.90;;;;;;;0.52;86.24;98021.46;214112;1310;138424;-76
2022/12/15 11:57:24;;;;;;;50.90;23.90;;;;;;;0.53;85.64;98029.59;214078;1312;138500;-77
2022/12/15 12:02:42;;;;;;;67.70;28.60;;;;;;;0.53;85.76;98031.86;213998;1312;139029;-77
2022/12/15 12:07:59;;;;;;;71.00;27.60;;;;;;;0.77;87.23;98026.98;213864;1283;138764;-77
2022/12/15 12:13:13;;;;;;;89.40;36.40;;;;;;;1.01;87.31;98031.58;214191;1283;138863;-76
2022/12/15 12:18:29;;;;;;;90.60;38.60;;;;;;;1.09;86.85;98016.01;214550;1284;138826;-77
2022/12/15 12:23:49;;;;;;;100.00;41.80;;;;;;;1.06;86.60;98011.34;214420;1306;25367;-76
2022/12/15 12:29:02;;;;;;;97.50;37.50;;;;;;;1.01;86.75;98010.42;214200;1312;22497;-76
2022/12/15 12:34:13;;;;;;;104.50;41.00;;;;;;;1.02;86.67;98012.87;213947;1294;137444;-75
2022/12/15 12:39:22;;;;;;;112.20;42.50;;;;;;;1.03;86.66;98019.89;214031;1289;138893;-76
2022/12/15 12:44:38;;;;;;;108.70;44.40;;;;;;;0.96;86.65;98029.46;214075;1287;139022;-76
2022/12/15 12:49:47;;;;;;;103.70;45.00;;;;;;;0.96;86.69;98030.41;213788;1290;138842;-77
2022/12/15 12:54:56;;;;;;;94.60;37.00;;;;;;;0.91;86.97;98034.14;214073;1312;138832;-77
2022/12/15 13:00:11;;;;;;;111.80;44.30;;;;;;;0.83;86.42;98023.32;213850;1313;138742;-78
2022/12/15 13:05:29;;;;;;;102.50;42.00;;;;;;;0.68;86.61;98014.68;213707;1298;24286;-77
2022/12/15 13:10:40;;;;;;;92.60;39.70;;;;;;;0.57;86.67;98015.58;214255;1312;138558;-77
2022/12/15 13:15:45;;;;;;;104.80;42.00;;;;;;;0.44;87.12;98014.71;214467;1298;140008;-77
2022/12/15 13:20:56;;;;;;;110.30;48.40;;;;;;;0.35;87.22;98015.20;214141;1294;139124;-78
2022/12/15 13:25:59;;;;;;;106.90;42.90;;;;;;;0.20;87.19;98016.75;213735;1291;139022;-78
2022/12/15 13:31:17;;;;;;;115.80;45.40;;;;;;;0.15;87.73;98014.84;214039;1297;138951;-77
2022/12/15 13:36:38;;;;;;;75.70;34.00;;;;;;;0.06;87.58;98028.71;214018;1288;138863;-77
2022/12/15 13:41:46;;;;;;;95.40;38.60;;;;;;;-0.24;86.88;98045.45;213979;1303;22494;-77
2022/12/15 13:47:17;;;;;;;86.10;37.50;;;;;;;-0.35;87.87;98039.89;214092;1288;22657;-77
2022/12/15 13:52:22;;;;;;;111.20;42.70;;;;;;;-0.39;87.72;98051.77;214060;1287;138772;-76
2022/12/15 13:57:55;;;;;;;109.90;41.20;;;;;;;-0.46;87.79;98069.20;214108;1295;139002;-77
2022/12/15 14:03:11;;;;;;;117.90;46.00;;;;;;;-0.55;87.75;98090.66;213701;1288;139096;-76
2022/12/15 14:08:16;;;;;;;126.50;47.90;;;;;;;-0.58;88.60;98087.34;213846;1290;139057;-76
2022/12/15 14:13:20;;;;;;;108.20;42.50;;;;;;;-0.60;88.81;98089.30;214982;1312;139116;-74
2022/12/15 14:18:22;;;;;;;112.20;42.30;;;;;;;-0.66;88.65;98094.39;214653;1281;139099;-76
2022/12/15 14:23:28;;;;;;;122.40;48.40;;;;;;;-0.75;88.37;98116.33;213989;1280;22631;-76
2022/12/15 14:28:36;;;;;;;122.90;45.40;;;;;;;-0.81;88.80;98131.58;214403;1291;138846;-75
2022/12/15 14:33:40;;;;;;;130.10;48.90;;;;;;;-0.82;89.10;98115.66;214182;1288;139133;-75
2022/12/15 14:39:05;;;;;;;135.60;49.00;;;;;;;-0.81;89.22;98115.64;213903;1288;139191;-75
2022/12/15 14:44:16;;;;;;;139.20;49.60;;;;;;;-0.81;89.52;98123.41;213977;1287;139242;-76
2022/12/15 14:49:41;;;;;;;152.00;55.10;;;;;;;-0.87;89.26;98134.91;213994;1287;139167;-75
2022/12/15 14:54:53;;;;;;;148.00;52.00;;;;;;;-0.91;89.60;98137.93;213994;1287;139092;-75
2022/12/15 15:00:29;;;;;;;159.90;54.60;;;;;;;-0.90;89.70;98139.74;214182;1288;24269;-77
2022/12/15 15:05:31;;;;;;;204.60;75.60;;;;;;;-0.94;89.84;98136.65;213593;1312;22947;-75
2022/12/15 15:10:33;;;;;;;227.70;78.40;;;;;;;-0.97;90.37;98132.33;213684;1312;23741;-78
2022/12/15 15:15:35;;;;;;;202.60;70.40;;;;;;;-1.00;90.44;98142.14;213714;1298;22509;-77
2022/12/15 15:20:37;;;;;;;193.30;64.10;;;;;;;-1.06;90.40;98146.64;213655;1312;22479;-76
2022/12/15 15:25:47;;;;;;;198.80;69.70;;;;;;;-1.12;90.14;98147.92;213853;1312;22567;-78
2022/12/15 15:30:51;;;;;;;;;;;;;;;-1.13;90.33;98155.31;213981;1311;22537;-77
2022/12/15 15:35:59;;;;;;;176.30;60.10;;;;;;;-1.16;90.27;98153.73;213778;1312;23229;-76
2022/12/15 15:41:16;;;;;;;189.80;61.50;;;;;;;-1.18;90.58;98139.16;213642;1312;24347;-78
2022/12/15 15:46:21;;;;;;;122.10;48.80;;;;;;;-1.22;90.35;98139.49;213739;1312;24352;-77
2022/12/15 15:51:25;;;;;;;123.00;49.70;;;;;;;-1.31;90.23;98129.14;214003;1312;24295;-75
2022/12/15 15:56:29;;;;;;;152.80;55.80;;;;;;;-1.44;90.06;98119.23;213594;1312;22471;-77
2022/12/15 16:01:31;;;;;;;187.50;69.60;;;;;;;-1.48;90.45;98101.15;213674;1312;22528;-76
2022/12/15 16:06:34;;;;;;;235.90;87.90;;;;;;;-1.49;90.84;98090.41;213666;1312;22549;-76
2022/12/15 16:11:37;;;;;;;226.40;88.80;;;;;;;-1.48;91.28;98080.45;213649;1312;22544;-77
2022/12/15 16:16:39;;;;;;;151.50;61.10;;;;;;;-1.47;91.21;98082.83;213683;1312;22460;-77
2022/12/15 16:21:41;;;;;;;132.90;56.50;;;;;;;-1.51;91.29;98093.20;213815;1312;24348;-77
2022/12/15 16:26:47;;;;;;;187.10;67.50;;;;;;;-1.58;91.27;98098.91;213703;1312;22616;-77
2022/12/15 16:31:49;;;;;;;155.30;56.50;;;;;;;-1.63;91.20;98106.79;213780;1312;25216;-77
2022/12/15 16:36:51;;;;;;;172.40;62.90;;;;;;;-1.68;91.23;98121.20;213794;1312;22481;-77
2022/12/15 16:41:54;;;;;;;142.00;54.40;;;;;;;-1.69;91.62;98120.55;213829;1312;24315;-76
2022/12/15 16:46:57;;;;;;;177.40;65.00;;;;;;;-1.68;91.69;98114.17;213536;1310;24307;-77
2022/12/15 16:51:59;;;;;;;189.60;65.20;;;;;;;-1.65;92.04;98107.46;213591;1312;22470;-77
2022/12/15 16:57:02;;;;;;;165.60;61.70;;;;;;;-1.65;91.90;98122.95;213656;1312;24066;-77
2022/12/15 17:02:36;;;;;;;215.00;77.60;;;;;;;-1.66;92.19;98124.98;213829;1312;24313;-78
2022/12/15 17:07:38;;;;;;;244.00;86.30;;;;;;;-1.68;92.45;98128.77;213740;1312;26207;-78
2022/12/15 17:12:43;;;;;;;243.70;82.10;;;;;;;-1.69;92.56;98122.84;213753;1312;22667;-78
2022/12/15 17:17:45;;;;;;;228.50;81.10;;;;;;;-1.73;92.50;98122.58;213880;1311;22478;-78
2022/12/15 17:22:52;;;;;;;190.70;67.30;;;;;;;-1.78;92.53;98126.85;213555;1312;22484;-76
2022/12/15 17:27:55;;;;;;;147.00;54.60;;;;;;;-1.79;92.85;98129.16;213844;1312;22544;-78
2022/12/15 17:32:57;;;;;;;147.80;57.10;;;;;;;-1.83;92.60;98114.69;213488;1312;25281;-77
2022/12/15 17:37:59;;;;;;;149.80;57.00;;;;;;;-1.89;92.51;98115.33;213590;1312;22559;-78
2022/12/15 17:43:01;;;;;;;132.90;50.90;;;;;;;-1.90;92.68;98116.46;213826;1312;22477;-77
2022/12/15 17:48:04;;;;;;;125.00;51.40;;;;;;;-1.87;92.82;98111.94;213717;1312;22536;-78
2022/12/15 17:53:09;;;;;;;136.70;52.10;;;;;;;-1.86;92.68;98107.98;213761;1312;22537;-78
2022/12/15 17:58:18;;;;;;;124.20;48.10;;;;;;;-1.85;92.86;98117.84;213517;1312;22507;-77
2022/12/15 18:03:23;;;;;;;148.40;59.30;;;;;;;-1.82;93.14;98125.77;213859;1308;23771;-77
2022/12/15 18:08:26;;;;;;;160.50;60.10;;;;;;;-1.77;93.48;98129.17;213855;1304;22479;-78
2022/12/15 18:13:31;;;;;;;160.40;57.30;;;;;;;-1.74;93.57;98123.06;213786;1312;22486;-78
2022/12/15 18:18:36;;;;;;;126.80;50.30;;;;;;;-1.72;93.66;98130.79;213590;1312;22677;-78
2022/12/15 18:23:40;;;;;;;146.90;61.20;;;;;;;-1.70;93.53;98136.04;213774;1312;24342;-78
2022/12/15 18:28:43;;;;;;;119.30;50.60;;;;;;;-1.68;93.83;98140.27;213782;1312;26634;-79
2022/12/15 18:33:45;;;;;;;138.20;56.30;;;;;;;-1.67;93.68;98139.66;213646;1312;24228;-78
2022/12/15 18:38:47;;;;;;;95.10;42.70;;;;;;;-1.67;93.77;98140.39;213802;1312;25414;-78
2022/12/15 18:43:49;;;;;;;139.20;54.40;;;;;;;-1.64;94.17;98142.48;213616;1313;22524;-77
2022/12/15 18:48:59;;;;;;;116.00;49.60;;;;;;;-1.63;93.88;98138.55;213905;1312;22967;-78
2022/12/15 18:54:02;;;;;;;107.50;46.70;;;;;;;-1.64;93.90;98136.58;213807;1313;25232;-79
2022/12/15 18:59:09;;;;;;;127.20;52.40;;;;;;;-1.63;93.91;98133.83;213637;1309;22646;-78
2022/12/15 19:04:13;;;;;;;130.50;54.20;;;;;;;-1.63;94.00;98124.70;213481;1312;24326;-77
2022/12/15 19:09:19;;;;;;;107.40;46.00;;;;;;;-1.61;94.21;98116.86;213621;1312;22636;-78
2022/12/15 19:14:39;;;;;;;131.50;56.60;;;;;;;-1.65;93.93;98102.69;213772;1312;22475;-78
2022/12/15 19:25:06;;;;;;;125.50;46.40;;;;;;;-1.71;94.40;98100.92;213879;1312;24313;-79
2022/12/15 19:30:17;;;;;;;149.40;59.10;;;;;;;-1.76;94.19;98106.05;213866;1312;25395;-79
2022/12/15 19:35:19;;;;;;;132.10;53.00;;;;;;;-1.81;94.37;98106.27;213904;1312;22572;-78
2022/12/15 19:40:29;;;;;;;160.90;61.50;;;;;;;-1.83;94.34;98117.67;213622;1312;22669;-77
2022/12/15 19:45:32;;;;;;;131.80;52.40;;;;;;;-1.86;94.36;98120.05;213664;1289;25662;-78
2022/12/15 19:50:36;;;;;;;153.80;55.00;;;;;;;-1.92;94.45;98115.00;213561;1312;24742;-80
2022/12/15 19:55:39;;;;;;;99.70;42.00;;;;;;;-1.95;94.47;98121.79;214567;1312;22555;-78
2022/12/15 20:00:41;;;;;;;111.20;43.10;;;;;;;-2.00;94.75;98121.80;213759;1311;22934;-78
2022/12/15 20:05:44;;;;;;;122.70;46.90;;;;;;;-1.98;95.06;98119.56;213587;1312;25403;-77
2022/12/15 20:10:48;;;;;;;105.60;43.50;;;;;;;-1.96;94.98;98119.30;213778;1312;22523;-78
2022/12/15 20:15:50;;;;;;;104.40;43.80;;;;;;;-1.95;95.02;98099.28;213946;1312;23946;-79
2022/12/15 20:20:52;;;;;;;126.30;47.10;;;;;;;-1.93;95.10;98093.69;213758;1312;24429;-78
2022/12/15 20:25:55;;;;;;;126.90;46.60;;;;;;;-1.97;94.84;98091.17;213693;1311;22479;-78
2022/12/15 20:30:57;;;;;;;129.30;46.40;;;;;;;-2.00;95.32;98081.91;213863;1312;24274;-77
2022/12/15 20:35:59;;;;;;;141.90;52.70;;;;;;;-2.02;95.10;98079.65;213522;1312;24048;-78
2022/12/15 20:41:02;;;;;;;119.50;45.30;;;;;;;-2.07;95.25;98073.48;213398;1312;25556;-78
2022/12/15 20:46:09;;;;;;;152.80;54.90;;;;;;;-2.14;94.84;98069.83;213592;1312;22484;-78
2022/12/15 20:51:19;;;;;;;137.70;48.90;;;;;;;-2.23;95.13;98066.84;213859;1312;22574;-78
2022/12/15 20:56:22;;;;;;;138.40;49.70;;;;;;;-2.28;95.29;98059.83;213752;1307;22497;-77
2022/12/15 21:01:30;;;;;;;134.50;47.70;;;;;;;-2.28;95.64;98057.63;213626;1312;24444;-79
2022/12/15 21:06:32;;;;;;;128.70;47.10;;;;;;;-2.27;95.57;98055.30;214027;1312;22485;-78
2022/12/15 21:11:34;;;;;;;180.50;60.00;;;;;;;-2.21;95.76;98046.30;213761;1312;24907;-77
2022/12/15 21:16:36;;;;;;;123.40;47.00;;;;;;;-2.18;95.91;98045.74;213721;1312;22495;-78
2022/12/15 21:21:43;;;;;;;92.10;40.10;;;;;;;-2.18;95.74;98042.80;213622;1307;22475;-78
2022/12/15 21:26:45;;;;;;;87.20;33.10;;;;;;;-2.15;96.04;98032.98;213614;1312;23907;-77
2022/12/15 21:31:48;;;;;;;64.40;26.60;;;;;;;-2.13;95.91;98030.83;213889;1312;22487;-78
2022/12/15 21:36:52;;;;;;;74.70;30.40;;;;;;;-2.13;96.13;98022.22;213793;1307;22534;-78
2022/12/15 21:42:03;;;;;;;64.50;24.40;;;;;;;-2.10;96.41;98013.58;213856;1312;23479;-78
2022/12/15 21:49:13;;;;;;;75.10;27.90;;;;;;;-2.08;96.21;98013.41;213648;1304;22635;-77
2022/12/15 21:52:53;;;;;;;67.10;26.80;;;;;;;-2.03;96.57;98016.16;213929;1312;24366;-78
2022/12/15 21:57:56;;;;;;;45.30;20.20;;;;;;;-1.98;96.91;98016.51;213780;1312;22551;-77
2022/12/15 22:02:58;;;;;;;51.60;21.60;;;;;;;-1.92;97.07;98008.20;213495;1312;22489;-77
2022/12/15 22:08:11;;;;;;;60.30;21.60;;;;;;;-1.90;96.74;98004.20;213577;1312;22481;-77
2022/12/15 22:13:20;;;;;;;55.10;21.50;;;;;;;-1.90;96.99;98003.77;213829;1310;25399;-78
2022/12/15 22:18:22;;;;;;;56.90;22.60;;;;;;;-1.88;96.84;98000.92;213637;1312;22482;-78
2022/12/15 22:23:24;;;;;;;63.70;23.10;;;;;;;-1.84;96.99;97991.05;213738;1312;24285;-77
2022/12/15 22:28:27;;;;;;;53.30;20.70;;;;;;;-1.83;97.01;97982.86;213886;1312;22539;-77
2022/12/15 22:33:30;;;;;;;58.90;22.70;;;;;;;-1.83;96.90;97959.48;213617;1312;22985;-78
2022/12/15 22:38:32;;;;;;;56.60;23.30;;;;;;;-1.80;96.95;97951.96;213756;1312;25207;-77
2022/12/15 22:43:40;;;;;;;72.70;26.70;;;;;;;-1.80;96.77;97952.17;213691;1312;79817;-77
2022/12/15 22:48:50;;;;;;;78.50;27.10;;;;;;;-1.79;97.33;97942.81;213739;1307;22511;-76
2022/12/15 22:53:52;;;;;;;88.00;30.00;;;;;;;-1.77;97.10;97945.16;213663;1312;22552;-77
2022/12/15 22:59:04;;;;;;;86.70;31.40;;;;;;;-1.78;96.95;97946.14;213673;1311;26351;-77
2022/12/15 23:04:06;;;;;;;71.00;27.00;;;;;;;-1.76;97.32;97942.88;213661;1312;22554;-77
2022/12/15 23:09:08;;;;;;;58.40;22.30;;;;;;;-1.77;97.10;97935.83;213651;1309;23241;-78
2022/12/15 23:14:16;;;;;;;69.90;25.00;;;;;;;-1.78;96.89;97931.93;213788;1312;24879;-78
2022/12/15 23:19:27;;;;;;;78.20;28.20;;;;;;;-1.77;97.20;97931.14;213612;1312;22583;-78
2022/12/15 23:24:30;;;;;;;60.10;22.40;;;;;;;-1.77;97.06;97910.46;213705;1312;24348;-77
2022/12/15 23:29:31;;;;;;;69.50;25.20;;;;;;;-1.74;97.22;97898.13;213886;1312;22606;-78
2022/12/15 23:34:33;;;;;;;59.20;24.10;;;;;;;-1.71;97.22;97892.09;213405;1312;25261;-78
2022/12/15 23:39:35;;;;;;;78.60;26.10;;;;;;;-1.71;96.87;97895.98;213959;1312;22663;-77
2022/12/15 23:44:37;;;;;;;62.90;24.40;;;;;;;-1.72;96.91;97892.55;213839;1312;25388;-77
2022/12/15 23:49:39;;;;;;;47.40;18.70;;;;;;;-1.73;97.05;97896.05;213694;1312;25157;-78
2022/12/15 23:54:41;;;;;;;59.00;22.90;;;;;;;-1.73;96.85;97908.85;213669;1312;25325;-78
2022/12/15 23:59:43;;;;;;;50.70;21.60;;;;;;;-1.76;96.57;97907.52;213699;1311;22515;-76
